Terminal Aerodrome Forecast
Issued by NWS San Angelo, TX

Home | Current Version | Previous Version | Text Only | Print | Product List | Glossary On
Versions: 1 2 3 4 5 6 7 8 9 10 11 12
777
FTUS44 KSJT 130520
TAFSJT
TAF
KSJT 130520Z 1306/1406 22009KT P6SM SKC
     FM131800 23012G19KT P6SM SCT250
     FM132200 22010KT P6SM SCT250=

USA.gov is the U.S. government's official web portal to all federal, state and local government web resources and services.